sensor_id;sensor_type;location;lat;lon;timestamp;P1;durP1;ratioP1;P2;durP2;ratioP2
16407;SDS011;8313;49.894;8.084;2023-01-29T00:01:52;6.30;;;4.50;;
16407;SDS011;8313;49.894;8.084;2023-01-29T00:04:18;4.57;;;3.43;;
16407;SDS011;8313;49.894;8.084;2023-01-29T00:06:44;5.77;;;3.63;;
16407;SDS011;8313;49.894;8.084;2023-01-29T00:09:10;7.00;;;4.20;;
16407;SDS011;8313;49.894;8.084;2023-01-29T00:11:36;7.83;;;4.47;;
16407;SDS011;8313;49.894;8.084;2023-01-29T00:14:02;4.50;;;3.47;;
16407;SDS011;8313;49.894;8.084;2023-01-29T00:16:27;4.97;;;3.60;;
16407;SDS011;8313;49.894;8.084;2023-01-29T00:18:53;3.87;;;2.90;;
16407;SDS011;8313;49.894;8.084;2023-01-29T00:21:20;6.00;;;2.97;;
16407;SDS011;8313;49.894;8.084;2023-01-29T00:23:46;4.17;;;3.70;;
16407;SDS011;8313;49.894;8.084;2023-01-29T00:26:13;7.30;;;4.00;;
16407;SDS011;8313;49.894;8.084;2023-01-29T00:28:42;3.43;;;3.13;;
16407;SDS011;8313;49.894;8.084;2023-01-29T00:31:09;3.83;;;2.80;;
16407;SDS011;8313;49.894;8.084;2023-01-29T00:33:35;4.43;;;3.23;;
16407;SDS011;8313;49.894;8.084;2023-01-29T00:36:05;5.43;;;3.50;;
16407;SDS011;8313;49.894;8.084;2023-01-29T00:38:32;3.83;;;3.30;;
16407;SDS011;8313;49.894;8.084;2023-01-29T00:41:06;3.37;;;2.80;;
16407;SDS011;8313;49.894;8.084;2023-01-29T00:43:51;3.80;;;2.93;;
16407;SDS011;8313;49.894;8.084;2023-01-29T00:46:35;3.60;;;2.87;;
16407;SDS011;8313;49.894;8.084;2023-01-29T00:49:01;3.83;;;3.00;;
16407;SDS011;8313;49.894;8.084;2023-01-29T00:51:28;4.13;;;3.70;;
16407;SDS011;8313;49.894;8.084;2023-01-29T00:53:54;4.00;;;3.30;;
16407;SDS011;8313;49.894;8.084;2023-01-29T00:56:25;7.10;;;4.93;;
16407;SDS011;8313;49.894;8.084;2023-01-29T00:58:52;5.00;;;3.80;;
16407;SDS011;8313;49.894;8.084;2023-01-29T01:01:18;6.10;;;4.10;;
16407;SDS011;8313;49.894;8.084;2023-01-29T01:04:05;4.63;;;3.20;;
16407;SDS011;8313;49.894;8.084;2023-01-29T01:06:30;3.63;;;2.90;;
16407;SDS011;8313;49.894;8.084;2023-01-29T01:08:56;8.87;;;4.07;;
16407;SDS011;8313;49.894;8.084;2023-01-29T01:11:41;6.10;;;3.57;;
16407;SDS011;8313;49.894;8.084;2023-01-29T01:14:06;5.37;;;3.80;;
16407;SDS011;8313;49.894;8.084;2023-01-29T01:16:32;4.27;;;3.87;;
16407;SDS011;8313;49.894;8.084;2023-01-29T01:18:58;5.77;;;3.43;;
16407;SDS011;8313;49.894;8.084;2023-01-29T01:21:24;6.90;;;4.03;;
16407;SDS011;8313;49.894;8.084;2023-01-29T01:23:49;4.53;;;3.47;;
16407;SDS011;8313;49.894;8.084;2023-01-29T01:26:16;4.10;;;3.43;;
16407;SDS011;8313;49.894;8.084;2023-01-29T01:28:45;4.50;;;3.13;;
16407;SDS011;8313;49.894;8.084;2023-01-29T01:31:11;5.57;;;3.53;;
16407;SDS011;8313;49.894;8.084;2023-01-29T01:33:38;3.60;;;3.30;;
16407;SDS011;8313;49.894;8.084;2023-01-29T01:36:05;4.00;;;2.67;;
16407;SDS011;8313;49.894;8.084;2023-01-29T01:38:37;4.53;;;3.13;;
16407;SDS011;8313;49.894;8.084;2023-01-29T01:41:17;4.20;;;3.40;;
16407;SDS011;8313;49.894;8.084;2023-01-29T01:43:48;5.30;;;3.00;;
16407;SDS011;8313;49.894;8.084;2023-01-29T01:46:23;4.43;;;3.50;;
16407;SDS011;8313;49.894;8.084;2023-01-29T01:48:53;4.10;;;2.87;;
16407;SDS011;8313;49.894;8.084;2023-01-29T01:51:23;3.87;;;2.97;;
16407;SDS011;8313;49.894;8.084;2023-01-29T01:53:55;5.50;;;3.40;;
16407;SDS011;8313;49.894;8.084;2023-01-29T01:56:26;5.13;;;3.63;;
16407;SDS011;8313;49.894;8.084;2023-01-29T01:59:02;4.73;;;3.50;;
16407;SDS011;8313;49.894;8.084;2023-01-29T02:01:32;3.80;;;2.97;;
16407;SDS011;8313;49.894;8.084;2023-01-29T02:04:05;5.20;;;3.50;;
16407;SDS011;8313;49.894;8.084;2023-01-29T02:06:59;5.33;;;3.83;;
16407;SDS011;8313;49.894;8.084;2023-01-29T02:10:19;4.17;;;3.37;;
16407;SDS011;8313;49.894;8.084;2023-01-29T02:12:39;5.53;;;3.73;;
16407;SDS011;8313;49.894;8.084;2023-01-29T02:15:06;4.57;;;3.53;;
16407;SDS011;8313;49.894;8.084;2023-01-29T02:17:32;4.57;;;4.00;;
16407;SDS011;8313;49.894;8.084;2023-01-29T02:41:38;4.40;;;3.30;;
16407;SDS011;8313;49.894;8.084;2023-01-29T02:46:59;4.53;;;3.40;;
16407;SDS011;8313;49.894;8.084;2023-01-29T02:49:34;6.20;;;3.57;;
16407;SDS011;8313;49.894;8.084;2023-01-29T02:52:03;4.97;;;3.73;;
16407;SDS011;8313;49.894;8.084;2023-01-29T02:57:21;4.40;;;3.33;;
16407;SDS011;8313;49.894;8.084;2023-01-29T02:59:57;6.60;;;3.63;;
16407;SDS011;8313;49.894;8.084;2023-01-29T03:05:09;5.33;;;3.53;;
16407;SDS011;8313;49.894;8.084;2023-01-29T03:07:44;5.90;;;3.57;;
16407;SDS011;8313;49.894;8.084;2023-01-29T03:10:34;5.77;;;4.03;;
16407;SDS011;8313;49.894;8.084;2023-01-29T03:13:49;4.10;;;3.60;;
16407;SDS011;8313;49.894;8.084;2023-01-29T03:15:59;5.73;;;3.90;;
16407;SDS011;8313;49.894;8.084;2023-01-29T03:18:41;4.70;;;3.67;;
16407;SDS011;8313;49.894;8.084;2023-01-29T03:21:19;6.00;;;3.77;;
16407;SDS011;8313;49.894;8.084;2023-01-29T03:24:10;3.30;;;3.00;;
16407;SDS011;8313;49.894;8.084;2023-01-29T03:27:00;5.57;;;3.87;;
16407;SDS011;8313;49.894;8.084;2023-01-29T03:29:47;5.47;;;3.97;;
16407;SDS011;8313;49.894;8.084;2023-01-29T03:32:45;5.17;;;3.63;;
16407;SDS011;8313;49.894;8.084;2023-01-29T03:35:17;6.17;;;4.10;;
16407;SDS011;8313;49.894;8.084;2023-01-29T03:37:57;7.00;;;3.83;;
16407;SDS011;8313;49.894;8.084;2023-01-29T03:40:23;7.67;;;4.93;;
16407;SDS011;8313;49.894;8.084;2023-01-29T03:45:38;4.27;;;3.87;;
16407;SDS011;8313;49.894;8.084;2023-01-29T03:51:41;5.83;;;4.20;;
16407;SDS011;8313;49.894;8.084;2023-01-29T04:02:21;5.00;;;3.97;;
16407;SDS011;8313;49.894;8.084;2023-01-29T04:04:58;4.13;;;3.70;;
16407;SDS011;8313;49.894;8.084;2023-01-29T04:07:38;7.67;;;3.97;;
16407;SDS011;8313;49.894;8.084;2023-01-29T04:10:07;6.47;;;4.00;;
16407;SDS011;8313;49.894;8.084;2023-01-29T04:12:51;4.67;;;3.80;;
16407;SDS011;8313;49.894;8.084;2023-01-29T04:15:21;5.70;;;3.93;;
16407;SDS011;8313;49.894;8.084;2023-01-29T04:17:51;4.13;;;3.73;;
16407;SDS011;8313;49.894;8.084;2023-01-29T04:20:33;6.47;;;4.10;;
16407;SDS011;8313;49.894;8.084;2023-01-29T04:22:59;5.90;;;4.10;;
16407;SDS011;8313;49.894;8.084;2023-01-29T04:25:30;5.70;;;4.40;;
16407;SDS011;8313;49.894;8.084;2023-01-29T04:49:36;4.63;;;4.10;;
16407;SDS011;8313;49.894;8.084;2023-01-29T04:52:16;5.60;;;4.80;;
16407;SDS011;8313;49.894;8.084;2023-01-29T04:57:24;6.07;;;4.60;;
16407;SDS011;8313;49.894;8.084;2023-01-29T05:02:44;7.00;;;4.03;;
16407;SDS011;8313;49.894;8.084;2023-01-29T05:05:11;7.97;;;4.83;;
16407;SDS011;8313;49.894;8.084;2023-01-29T05:07:39;4.30;;;3.73;;
16407;SDS011;8313;49.894;8.084;2023-01-29T05:10:07;7.10;;;4.30;;
16407;SDS011;8313;49.894;8.084;2023-01-29T05:12:36;5.63;;;3.50;;
16407;SDS011;8313;49.894;8.084;2023-01-29T05:15:04;4.80;;;3.60;;
16407;SDS011;8313;49.894;8.084;2023-01-29T05:17:36;4.70;;;3.97;;
16407;SDS011;8313;49.894;8.084;2023-01-29T05:20:02;5.37;;;3.93;;
16407;SDS011;8313;49.894;8.084;2023-01-29T05:22:27;6.40;;;4.00;;
16407;SDS011;8313;49.894;8.084;2023-01-29T05:24:54;8.27;;;4.53;;
16407;SDS011;8313;49.894;8.084;2023-01-29T05:27:21;5.40;;;4.00;;
16407;SDS011;8313;49.894;8.084;2023-01-29T05:30:12;6.13;;;4.30;;
16407;SDS011;8313;49.894;8.084;2023-01-29T05:32:37;5.47;;;4.00;;
16407;SDS011;8313;49.894;8.084;2023-01-29T05:35:04;6.53;;;4.33;;
16407;SDS011;8313;49.894;8.084;2023-01-29T05:37:30;6.80;;;4.43;;
16407;SDS011;8313;49.894;8.084;2023-01-29T05:39:56;5.87;;;4.33;;
16407;SDS011;8313;49.894;8.084;2023-01-29T05:42:21;6.87;;;4.67;;
16407;SDS011;8313;49.894;8.084;2023-01-29T05:44:48;7.70;;;4.47;;
16407;SDS011;8313;49.894;8.084;2023-01-29T05:47:17;7.77;;;5.50;;
16407;SDS011;8313;49.894;8.084;2023-01-29T05:49:43;12.20;;;6.43;;
16407;SDS011;8313;49.894;8.084;2023-01-29T05:52:09;10.67;;;5.30;;
16407;SDS011;8313;49.894;8.084;2023-01-29T05:54:35;7.27;;;5.23;;
16407;SDS011;8313;49.894;8.084;2023-01-29T05:57:00;5.80;;;3.60;;
16407;SDS011;8313;49.894;8.084;2023-01-29T05:59:26;7.00;;;4.37;;
16407;SDS011;8313;49.894;8.084;2023-01-29T06:01:52;5.70;;;3.90;;
16407;SDS011;8313;49.894;8.084;2023-01-29T06:04:17;8.00;;;4.30;;
16407;SDS011;8313;49.894;8.084;2023-01-29T06:06:43;7.20;;;3.80;;
16407;SDS011;8313;49.894;8.084;2023-01-29T06:09:09;5.87;;;3.97;;
16407;SDS011;8313;49.894;8.084;2023-01-29T06:11:35;4.90;;;3.30;;
16407;SDS011;8313;49.894;8.084;2023-01-29T06:14:01;5.77;;;3.97;;
16407;SDS011;8313;49.894;8.084;2023-01-29T06:16:27;11.40;;;4.70;;
16407;SDS011;8313;49.894;8.084;2023-01-29T06:18:52;5.00;;;3.63;;
16407;SDS011;8313;49.894;8.084;2023-01-29T06:21:18;8.20;;;4.40;;
16407;SDS011;8313;49.894;8.084;2023-01-29T06:23:44;4.70;;;4.10;;
16407;SDS011;8313;49.894;8.084;2023-01-29T06:26:10;11.10;;;3.97;;
16407;SDS011;8313;49.894;8.084;2023-01-29T06:28:37;8.27;;;4.30;;
16407;SDS011;8313;49.894;8.084;2023-01-29T06:31:04;7.87;;;3.97;;
16407;SDS011;8313;49.894;8.084;2023-01-29T06:33:30;7.67;;;4.07;;
16407;SDS011;8313;49.894;8.084;2023-01-29T06:36:00;6.93;;;4.60;;
16407;SDS011;8313;49.894;8.084;2023-01-29T06:38:28;5.50;;;3.83;;
16407;SDS011;8313;49.894;8.084;2023-01-29T06:40:54;7.63;;;4.50;;
16407;SDS011;8313;49.894;8.084;2023-01-29T06:43:20;5.97;;;3.90;;
16407;SDS011;8313;49.894;8.084;2023-01-29T06:45:49;8.47;;;4.90;;
16407;SDS011;8313;49.894;8.084;2023-01-29T06:48:20;7.30;;;4.00;;
16407;SDS011;8313;49.894;8.084;2023-01-29T06:50:46;6.13;;;4.33;;
16407;SDS011;8313;49.894;8.084;2023-01-29T06:53:13;10.80;;;5.03;;
16407;SDS011;8313;49.894;8.084;2023-01-29T06:55:40;7.43;;;3.70;;
16407;SDS011;8313;49.894;8.084;2023-01-29T06:58:07;6.73;;;4.37;;
16407;SDS011;8313;49.894;8.084;2023-01-29T07:00:34;8.20;;;4.50;;
16407;SDS011;8313;49.894;8.084;2023-01-29T07:03:00;8.17;;;4.70;;
16407;SDS011;8313;49.894;8.084;2023-01-29T07:05:26;6.60;;;4.03;;
16407;SDS011;8313;49.894;8.084;2023-01-29T07:07:52;9.93;;;6.10;;
16407;SDS011;8313;49.894;8.084;2023-01-29T07:10:18;6.73;;;4.57;;
16407;SDS011;8313;49.894;8.084;2023-01-29T07:12:44;5.17;;;3.97;;
16407;SDS011;8313;49.894;8.084;2023-01-29T07:15:10;4.77;;;3.67;;
16407;SDS011;8313;49.894;8.084;2023-01-29T07:17:43;6.43;;;3.83;;
16407;SDS011;8313;49.894;8.084;2023-01-29T07:20:19;4.93;;;4.30;;
16407;SDS011;8313;49.894;8.084;2023-01-29T07:22:45;7.73;;;4.97;;
16407;SDS011;8313;49.894;8.084;2023-01-29T07:25:10;6.70;;;4.17;;
16407;SDS011;8313;49.894;8.084;2023-01-29T07:27:36;7.43;;;4.70;;
16407;SDS011;8313;49.894;8.084;2023-01-29T07:30:02;5.10;;;4.37;;
16407;SDS011;8313;49.894;8.084;2023-01-29T07:32:27;10.00;;;4.80;;
16407;SDS011;8313;49.894;8.084;2023-01-29T07:34:53;5.73;;;3.77;;
16407;SDS011;8313;49.894;8.084;2023-01-29T07:37:19;6.57;;;4.57;;
16407;SDS011;8313;49.894;8.084;2023-01-29T07:39:44;5.67;;;3.97;;
16407;SDS011;8313;49.894;8.084;2023-01-29T07:42:11;7.10;;;4.37;;
16407;SDS011;8313;49.894;8.084;2023-01-29T07:44:37;6.43;;;4.00;;
16407;SDS011;8313;49.894;8.084;2023-01-29T07:47:02;10.57;;;4.97;;
16407;SDS011;8313;49.894;8.084;2023-01-29T07:49:28;6.20;;;4.30;;
16407;SDS011;8313;49.894;8.084;2023-01-29T07:51:54;5.70;;;3.50;;
16407;SDS011;8313;49.894;8.084;2023-01-29T07:54:20;6.53;;;4.93;;
16407;SDS011;8313;49.894;8.084;2023-01-29T07:56:45;4.30;;;3.30;;
16407;SDS011;8313;49.894;8.084;2023-01-29T07:59:11;5.30;;;4.33;;
16407;SDS011;8313;49.894;8.084;2023-01-29T08:01:37;8.00;;;4.43;;
16407;SDS011;8313;49.894;8.084;2023-01-29T08:04:02;8.33;;;4.67;;
16407;SDS011;8313;49.894;8.084;2023-01-29T08:06:28;6.00;;;4.33;;
16407;SDS011;8313;49.894;8.084;2023-01-29T08:08:54;4.90;;;4.40;;
16407;SDS011;8313;49.894;8.084;2023-01-29T08:11:21;6.90;;;4.53;;
16407;SDS011;8313;49.894;8.084;2023-01-29T08:13:47;9.53;;;4.70;;
16407;SDS011;8313;49.894;8.084;2023-01-29T08:16:13;8.93;;;4.77;;
16407;SDS011;8313;49.894;8.084;2023-01-29T08:18:39;6.30;;;4.13;;
16407;SDS011;8313;49.894;8.084;2023-01-29T08:21:08;5.57;;;4.20;;
16407;SDS011;8313;49.894;8.084;2023-01-29T08:23:33;4.40;;;3.80;;
16407;SDS011;8313;49.894;8.084;2023-01-29T08:26:00;6.33;;;4.60;;
16407;SDS011;8313;49.894;8.084;2023-01-29T08:28:27;6.60;;;4.93;;
16407;SDS011;8313;49.894;8.084;2023-01-29T08:30:53;6.07;;;3.80;;
16407;SDS011;8313;49.894;8.084;2023-01-29T08:33:19;4.87;;;3.50;;
16407;SDS011;8313;49.894;8.084;2023-01-29T08:35:51;5.27;;;3.50;;
16407;SDS011;8313;49.894;8.084;2023-01-29T08:38:16;5.57;;;3.93;;
16407;SDS011;8313;49.894;8.084;2023-01-29T08:40:42;4.30;;;2.97;;
16407;SDS011;8313;49.894;8.084;2023-01-29T08:43:09;5.37;;;4.57;;
16407;SDS011;8313;49.894;8.084;2023-01-29T08:45:37;5.90;;;4.30;;
16407;SDS011;8313;49.894;8.084;2023-01-29T08:48:05;5.43;;;3.60;;
16407;SDS011;8313;49.894;8.084;2023-01-29T08:50:32;7.10;;;4.00;;
16407;SDS011;8313;49.894;8.084;2023-01-29T08:53:01;6.20;;;3.90;;
16407;SDS011;8313;49.894;8.084;2023-01-29T08:55:28;7.87;;;4.30;;
16407;SDS011;8313;49.894;8.084;2023-01-29T08:57:54;12.30;;;5.30;;
16407;SDS011;8313;49.894;8.084;2023-01-29T09:00:23;5.83;;;4.47;;
16407;SDS011;8313;49.894;8.084;2023-01-29T09:02:49;5.30;;;4.40;;
16407;SDS011;8313;49.894;8.084;2023-01-29T09:05:15;8.37;;;4.50;;
16407;SDS011;8313;49.894;8.084;2023-01-29T09:07:41;6.47;;;4.67;;
16407;SDS011;8313;49.894;8.084;2023-01-29T09:10:07;7.60;;;4.43;;
16407;SDS011;8313;49.894;8.084;2023-01-29T09:12:33;7.97;;;4.83;;
16407;SDS011;8313;49.894;8.084;2023-01-29T09:14:59;25.07;;;14.50;;
16407;SDS011;8313;49.894;8.084;2023-01-29T09:17:24;33.63;;;17.97;;
16407;SDS011;8313;49.894;8.084;2023-01-29T09:19:50;17.93;;;8.67;;
16407;SDS011;8313;49.894;8.084;2023-01-29T09:22:17;25.20;;;11.50;;
16407;SDS011;8313;49.894;8.084;2023-01-29T09:24:43;11.03;;;6.60;;
16407;SDS011;8313;49.894;8.084;2023-01-29T09:27:09;9.50;;;6.00;;
16407;SDS011;8313;49.894;8.084;2023-01-29T09:29:35;9.47;;;6.87;;
16407;SDS011;8313;49.894;8.084;2023-01-29T09:32:04;6.67;;;4.70;;
16407;SDS011;8313;49.894;8.084;2023-01-29T09:34:30;10.33;;;5.10;;
16407;SDS011;8313;49.894;8.084;2023-01-29T09:36:56;10.37;;;6.43;;
16407;SDS011;8313;49.894;8.084;2023-01-29T09:39:22;8.20;;;4.60;;
16407;SDS011;8313;49.894;8.084;2023-01-29T09:44:45;6.87;;;4.40;;
16407;SDS011;8313;49.894;8.084;2023-01-29T09:47:13;6.47;;;4.20;;
16407;SDS011;8313;49.894;8.084;2023-01-29T09:49:46;7.07;;;4.80;;
16407;SDS011;8313;49.894;8.084;2023-01-29T09:52:17;9.60;;;5.73;;
16407;SDS011;8313;49.894;8.084;2023-01-29T10:00:34;7.40;;;4.63;;
16407;SDS011;8313;49.894;8.084;2023-01-29T10:03:14;8.40;;;4.30;;
16407;SDS011;8313;49.894;8.084;2023-01-29T10:06:07;7.20;;;4.07;;
16407;SDS011;8313;49.894;8.084;2023-01-29T10:14:09;5.67;;;4.57;;
16407;SDS011;8313;49.894;8.084;2023-01-29T10:16:48;5.87;;;4.20;;
16407;SDS011;8313;49.894;8.084;2023-01-29T10:25:10;5.93;;;4.00;;
16407;SDS011;8313;49.894;8.084;2023-01-29T10:27:44;6.20;;;4.67;;
16407;SDS011;8313;49.894;8.084;2023-01-29T10:32:46;6.80;;;4.03;;
16407;SDS011;8313;49.894;8.084;2023-01-29T10:35:23;9.90;;;5.37;;
16407;SDS011;8313;49.894;8.084;2023-01-29T10:37:55;6.63;;;4.63;;
16407;SDS011;8313;49.894;8.084;2023-01-29T10:45:30;7.90;;;5.07;;
16407;SDS011;8313;49.894;8.084;2023-01-29T10:48:32;5.03;;;4.13;;
16407;SDS011;8313;49.894;8.084;2023-01-29T11:01:56;9.57;;;6.37;;
16407;SDS011;8313;49.894;8.084;2023-01-29T11:04:23;6.93;;;5.30;;
16407;SDS011;8313;49.894;8.084;2023-01-29T11:06:52;5.77;;;5.00;;
16407;SDS011;8313;49.894;8.084;2023-01-29T11:11:47;9.70;;;5.63;;
16407;SDS011;8313;49.894;8.084;2023-01-29T11:14:22;8.80;;;4.90;;
16407;SDS011;8313;49.894;8.084;2023-01-29T11:16:52;7.97;;;5.10;;
16407;SDS011;8313;49.894;8.084;2023-01-29T11:19:18;5.30;;;4.20;;
16407;SDS011;8313;49.894;8.084;2023-01-29T11:22:04;5.47;;;4.20;;
16407;SDS011;8313;49.894;8.084;2023-01-29T11:24:35;7.10;;;4.60;;
16407;SDS011;8313;49.894;8.084;2023-01-29T11:27:01;7.27;;;4.60;;
16407;SDS011;8313;49.894;8.084;2023-01-29T11:29:40;4.67;;;4.13;;
16407;SDS011;8313;49.894;8.084;2023-01-29T11:37:44;5.40;;;4.27;;
16407;SDS011;8313;49.894;8.084;2023-01-29T11:45:44;7.33;;;5.93;;
16407;SDS011;8313;49.894;8.084;2023-01-29T11:48:18;8.67;;;5.07;;
16407;SDS011;8313;49.894;8.084;2023-01-29T11:50:52;7.40;;;4.60;;
16407;SDS011;8313;49.894;8.084;2023-01-29T11:53:43;7.10;;;4.93;;
16407;SDS011;8313;49.894;8.084;2023-01-29T11:56:26;7.33;;;5.00;;
16407;SDS011;8313;49.894;8.084;2023-01-29T11:58:55;12.60;;;5.80;;
16407;SDS011;8313;49.894;8.084;2023-01-29T12:01:32;10.67;;;6.67;;
16407;SDS011;8313;49.894;8.084;2023-01-29T12:04:01;6.90;;;4.43;;
16407;SDS011;8313;49.894;8.084;2023-01-29T12:06:35;5.70;;;4.47;;
16407;SDS011;8313;49.894;8.084;2023-01-29T12:09:09;7.17;;;5.10;;
16407;SDS011;8313;49.894;8.084;2023-01-29T12:11:39;8.67;;;5.97;;
16407;SDS011;8313;49.894;8.084;2023-01-29T12:14:14;13.30;;;5.93;;
16407;SDS011;8313;49.894;8.084;2023-01-29T12:19:35;6.80;;;4.47;;
16407;SDS011;8313;49.894;8.084;2023-01-29T12:22:36;10.00;;;5.77;;
16407;SDS011;8313;49.894;8.084;2023-01-29T12:25:03;9.00;;;4.87;;
16407;SDS011;8313;49.894;8.084;2023-01-29T12:30:30;8.23;;;5.10;;
16407;SDS011;8313;49.894;8.084;2023-01-29T12:35:49;7.17;;;4.17;;
16407;SDS011;8313;49.894;8.084;2023-01-29T12:38:20;7.93;;;5.17;;
16407;SDS011;8313;49.894;8.084;2023-01-29T12:43:48;6.10;;;4.43;;
16407;SDS011;8313;49.894;8.084;2023-01-29T12:46:25;6.17;;;4.30;;
16407;SDS011;8313;49.894;8.084;2023-01-29T12:48:57;6.30;;;4.43;;
16407;SDS011;8313;49.894;8.084;2023-01-29T12:51:30;9.40;;;5.30;;
16407;SDS011;8313;49.894;8.084;2023-01-29T12:54:02;8.33;;;5.30;;
16407;SDS011;8313;49.894;8.084;2023-01-29T12:56:38;6.90;;;5.10;;
16407;SDS011;8313;49.894;8.084;2023-01-29T12:59:16;6.73;;;5.03;;
16407;SDS011;8313;49.894;8.084;2023-01-29T13:01:50;6.73;;;3.87;;
16407;SDS011;8313;49.894;8.084;2023-01-29T13:06:59;7.13;;;4.70;;
16407;SDS011;8313;49.894;8.084;2023-01-29T13:09:38;6.20;;;4.47;;
16407;SDS011;8313;49.894;8.084;2023-01-29T13:12:14;4.70;;;4.13;;
16407;SDS011;8313;49.894;8.084;2023-01-29T13:17:25;9.30;;;4.80;;
16407;SDS011;8313;49.894;8.084;2023-01-29T13:22:47;6.03;;;5.37;;
16407;SDS011;8313;49.894;8.084;2023-01-29T13:25:16;6.37;;;4.57;;
16407;SDS011;8313;49.894;8.084;2023-01-29T13:27:43;7.47;;;5.70;;
16407;SDS011;8313;49.894;8.084;2023-01-29T13:32:52;6.50;;;4.80;;
16407;SDS011;8313;49.894;8.084;2023-01-29T13:35:20;9.03;;;4.93;;
16407;SDS011;8313;49.894;8.084;2023-01-29T13:37:48;8.43;;;4.77;;
16407;SDS011;8313;49.894;8.084;2023-01-29T13:40:18;6.47;;;4.90;;
16407;SDS011;8313;49.894;8.084;2023-01-29T13:42:48;7.60;;;5.17;;
16407;SDS011;8313;49.894;8.084;2023-01-29T13:45:41;6.23;;;4.23;;
16407;SDS011;8313;49.894;8.084;2023-01-29T13:50:43;8.57;;;4.23;;
16407;SDS011;8313;49.894;8.084;2023-01-29T13:53:18;4.17;;;3.40;;
16407;SDS011;8313;49.894;8.084;2023-01-29T13:55:53;5.63;;;4.07;;
16407;SDS011;8313;49.894;8.084;2023-01-29T14:00:57;8.33;;;5.00;;
16407;SDS011;8313;49.894;8.084;2023-01-29T14:13:40;9.80;;;7.40;;
16407;SDS011;8313;49.894;8.084;2023-01-29T14:18:43;5.33;;;4.07;;
16407;SDS011;8313;49.894;8.084;2023-01-29T14:21:18;7.40;;;4.07;;
16407;SDS011;8313;49.894;8.084;2023-01-29T14:23:51;4.80;;;4.30;;
16407;SDS011;8313;49.894;8.084;2023-01-29T14:26:20;6.80;;;4.57;;
16407;SDS011;8313;49.894;8.084;2023-01-29T14:31:38;9.27;;;4.60;;
16407;SDS011;8313;49.894;8.084;2023-01-29T14:34:12;4.70;;;4.10;;
16407;SDS011;8313;49.894;8.084;2023-01-29T14:36:43;9.57;;;4.83;;
16407;SDS011;8313;49.894;8.084;2023-01-29T14:47:20;7.03;;;4.87;;
16407;SDS011;8313;49.894;8.084;2023-01-29T14:49:51;8.43;;;4.50;;
16407;SDS011;8313;49.894;8.084;2023-01-29T14:52:19;4.60;;;3.80;;
16407;SDS011;8313;49.894;8.084;2023-01-29T14:54:52;5.53;;;4.40;;
16407;SDS011;8313;49.894;8.084;2023-01-29T14:57:23;4.30;;;3.40;;
16407;SDS011;8313;49.894;8.084;2023-01-29T15:02:23;5.30;;;4.40;;
16407;SDS011;8313;49.894;8.084;2023-01-29T15:04:58;6.30;;;4.40;;
16407;SDS011;8313;49.894;8.084;2023-01-29T15:07:28;9.47;;;4.07;;
16407;SDS011;8313;49.894;8.084;2023-01-29T15:10:44;7.27;;;4.00;;
16407;SDS011;8313;49.894;8.084;2023-01-29T15:16:28;4.93;;;4.43;;
16407;SDS011;8313;49.894;8.084;2023-01-29T15:19:05;8.13;;;4.57;;
16407;SDS011;8313;49.894;8.084;2023-01-29T15:21:38;10.60;;;5.60;;
16407;SDS011;8313;49.894;8.084;2023-01-29T15:24:04;12.17;;;6.20;;
16407;SDS011;8313;49.894;8.084;2023-01-29T15:26:31;5.30;;;4.20;;
16407;SDS011;8313;49.894;8.084;2023-01-29T15:29:00;6.43;;;4.50;;
16407;SDS011;8313;49.894;8.084;2023-01-29T15:31:26;18.37;;;7.87;;
16407;SDS011;8313;49.894;8.084;2023-01-29T15:33:54;26.77;;;11.87;;
16407;SDS011;8313;49.894;8.084;2023-01-29T15:36:24;15.23;;;7.83;;
16407;SDS011;8313;49.894;8.084;2023-01-29T15:41:37;7.20;;;3.90;;
16407;SDS011;8313;49.894;8.084;2023-01-29T15:44:07;8.00;;;5.57;;
16407;SDS011;8313;49.894;8.084;2023-01-29T15:46:47;6.20;;;3.80;;
16407;SDS011;8313;49.894;8.084;2023-01-29T15:49:18;5.63;;;3.90;;
16407;SDS011;8313;49.894;8.084;2023-01-29T15:51:58;6.93;;;4.83;;
16407;SDS011;8313;49.894;8.084;2023-01-29T15:54:29;10.70;;;6.33;;
16407;SDS011;8313;49.894;8.084;2023-01-29T15:56:56;6.80;;;6.10;;
16407;SDS011;8313;49.894;8.084;2023-01-29T15:59:24;9.50;;;5.97;;
16407;SDS011;8313;49.894;8.084;2023-01-29T16:01:51;7.00;;;4.73;;
16407;SDS011;8313;49.894;8.084;2023-01-29T16:04:27;8.23;;;5.30;;
16407;SDS011;8313;49.894;8.084;2023-01-29T16:06:55;6.93;;;4.50;;
16407;SDS011;8313;49.894;8.084;2023-01-29T16:09:23;11.07;;;5.50;;
16407;SDS011;8313;49.894;8.084;2023-01-29T16:11:50;6.83;;;4.90;;
16407;SDS011;8313;49.894;8.084;2023-01-29T16:14:21;9.47;;;5.53;;
16407;SDS011;8313;49.894;8.084;2023-01-29T16:16:49;5.53;;;4.70;;
16407;SDS011;8313;49.894;8.084;2023-01-29T16:21:51;7.50;;;5.20;;
16407;SDS011;8313;49.894;8.084;2023-01-29T16:24:19;9.57;;;5.90;;
16407;SDS011;8313;49.894;8.084;2023-01-29T16:26:48;7.30;;;5.00;;
16407;SDS011;8313;49.894;8.084;2023-01-29T16:29:16;9.20;;;6.00;;
16407;SDS011;8313;49.894;8.084;2023-01-29T16:31:45;10.87;;;7.90;;
16407;SDS011;8313;49.894;8.084;2023-01-29T16:36:53;15.30;;;8.63;;
16407;SDS011;8313;49.894;8.084;2023-01-29T16:39:30;46.50;;;24.67;;
16407;SDS011;8313;49.894;8.084;2023-01-29T16:44:38;27.57;;;14.40;;
16407;SDS011;8313;49.894;8.084;2023-01-29T16:47:05;26.60;;;17.70;;
16407;SDS011;8313;49.894;8.084;2023-01-29T16:49:48;21.10;;;14.67;;
16407;SDS011;8313;49.894;8.084;2023-01-29T16:52:16;15.10;;;10.20;;
16407;SDS011;8313;49.894;8.084;2023-01-29T16:54:42;14.53;;;8.77;;
16407;SDS011;8313;49.894;8.084;2023-01-29T16:57:15;12.07;;;7.53;;
16407;SDS011;8313;49.894;8.084;2023-01-29T16:59:43;12.40;;;7.50;;
16407;SDS011;8313;49.894;8.084;2023-01-29T17:02:32;10.90;;;6.43;;
16407;SDS011;8313;49.894;8.084;2023-01-29T17:04:59;9.77;;;6.20;;
16407;SDS011;8313;49.894;8.084;2023-01-29T17:07:29;11.87;;;5.87;;
16407;SDS011;8313;49.894;8.084;2023-01-29T17:09:57;10.50;;;6.13;;
16407;SDS011;8313;49.894;8.084;2023-01-29T17:12:25;11.00;;;6.40;;
16407;SDS011;8313;49.894;8.084;2023-01-29T17:17:32;11.70;;;6.70;;
16407;SDS011;8313;49.894;8.084;2023-01-29T17:20:13;12.77;;;7.40;;
16407;SDS011;8313;49.894;8.084;2023-01-29T17:22:40;11.50;;;7.00;;
16407;SDS011;8313;49.894;8.084;2023-01-29T17:25:05;14.50;;;7.77;;
16407;SDS011;8313;49.894;8.084;2023-01-29T17:27:31;11.90;;;6.83;;
16407;SDS011;8313;49.894;8.084;2023-01-29T17:29:57;13.30;;;7.87;;
16407;SDS011;8313;49.894;8.084;2023-01-29T17:32:23;8.03;;;6.17;;
16407;SDS011;8313;49.894;8.084;2023-01-29T17:34:51;11.83;;;7.30;;
16407;SDS011;8313;49.894;8.084;2023-01-29T17:37:17;15.97;;;6.83;;
16407;SDS011;8313;49.894;8.084;2023-01-29T17:39:44;11.60;;;5.97;;
16407;SDS011;8313;49.894;8.084;2023-01-29T17:42:12;10.60;;;6.57;;
16407;SDS011;8313;49.894;8.084;2023-01-29T17:44:39;8.33;;;5.67;;
16407;SDS011;8313;49.894;8.084;2023-01-29T17:47:09;13.30;;;6.70;;
16407;SDS011;8313;49.894;8.084;2023-01-29T17:49:38;9.60;;;6.20;;
16407;SDS011;8313;49.894;8.084;2023-01-29T17:52:03;17.10;;;6.47;;
16407;SDS011;8313;49.894;8.084;2023-01-29T17:54:29;9.03;;;5.63;;
16407;SDS011;8313;49.894;8.084;2023-01-29T17:56:55;11.23;;;7.60;;
16407;SDS011;8313;49.894;8.084;2023-01-29T17:59:23;8.43;;;6.50;;
16407;SDS011;8313;49.894;8.084;2023-01-29T18:01:52;10.60;;;7.07;;
16407;SDS011;8313;49.894;8.084;2023-01-29T18:04:18;10.43;;;7.67;;
16407;SDS011;8313;49.894;8.084;2023-01-29T18:06:45;10.30;;;7.70;;
16407;SDS011;8313;49.894;8.084;2023-01-29T18:09:16;14.90;;;8.30;;
16407;SDS011;8313;49.894;8.084;2023-01-29T18:11:45;9.13;;;5.60;;
16407;SDS011;8313;49.894;8.084;2023-01-29T18:14:12;13.10;;;7.00;;
16407;SDS011;8313;49.894;8.084;2023-01-29T18:16:38;10.60;;;5.93;;
16407;SDS011;8313;49.894;8.084;2023-01-29T18:19:26;11.40;;;5.80;;
16407;SDS011;8313;49.894;8.084;2023-01-29T18:21:55;12.20;;;6.97;;
16407;SDS011;8313;49.894;8.084;2023-01-29T18:24:21;12.63;;;7.30;;
16407;SDS011;8313;49.894;8.084;2023-01-29T18:26:47;10.67;;;7.47;;
16407;SDS011;8313;49.894;8.084;2023-01-29T18:29:15;11.73;;;7.03;;
16407;SDS011;8313;49.894;8.084;2023-01-29T18:31:40;13.50;;;7.50;;